sensor_id;sensor_type;location;lat;lon;timestamp;pressure;altitude;pressure_sealevel;temperature;humidity
28911;BME280;16028;42.642;23.310;2023-03-18T00:02:12;94368.09;;;2.41;87.12
28911;BME280;16028;42.642;23.310;2023-03-18T00:04:39;94380.84;;;2.42;86.61
28911;BME280;16028;42.642;23.310;2023-03-18T00:07:07;94374.25;;;2.38;86.62
28911;BME280;16028;42.642;23.310;2023-03-18T00:09:35;94373.34;;;2.39;86.10
28911;BME280;16028;42.642;23.310;2023-03-18T00:12:01;94376.81;;;2.38;86.19
28911;BME280;16028;42.642;23.310;2023-03-18T00:14:28;94371.09;;;2.33;86.49
28911;BME280;16028;42.642;23.310;2023-03-18T00:16:55;94369.53;;;2.31;86.25
28911;BME280;16028;42.642;23.310;2023-03-18T00:19:22;94367.81;;;2.31;86.51
28911;BME280;16028;42.642;23.310;2023-03-18T00:21:49;94367.09;;;2.29;86.23
28911;BME280;16028;42.642;23.310;2023-03-18T00:24:17;94362.94;;;2.27;86.16
28911;BME280;16028;42.642;23.310;2023-03-18T00:26:44;94360.22;;;2.30;86.28
28911;BME280;16028;42.642;23.310;2023-03-18T00:29:10;94364.78;;;2.25;86.46
28911;BME280;16028;42.642;23.310;2023-03-18T00:31:37;94362.75;;;2.16;86.77
28911;BME280;16028;42.642;23.310;2023-03-18T00:34:04;94357.88;;;2.11;86.48
28911;BME280;16028;42.642;23.310;2023-03-18T00:36:32;94352.75;;;2.11;87.39
28911;BME280;16028;42.642;23.310;2023-03-18T00:38:58;94357.88;;;2.11;87.13
28911;BME280;16028;42.642;23.310;2023-03-18T00:41:29;94354.75;;;2.06;86.94
28911;BME280;16028;42.642;23.310;2023-03-18T00:43:57;94347.31;;;2.01;87.64
28911;BME280;16028;42.642;23.310;2023-03-18T00:46:24;94340.38;;;2.03;87.67
28911;BME280;16028;42.642;23.310;2023-03-18T00:48:52;94332.69;;;2.03;87.93
28911;BME280;16028;42.642;23.310;2023-03-18T00:51:19;94334.13;;;2.07;87.23
28911;BME280;16028;42.642;23.310;2023-03-18T00:53:47;94332.31;;;2.09;86.86
28911;BME280;16028;42.642;23.310;2023-03-18T00:56:15;94318.66;;;2.09;87.34
28911;BME280;16028;42.642;23.310;2023-03-18T00:58:44;94324.72;;;2.08;86.65
28911;BME280;16028;42.642;23.310;2023-03-18T01:01:11;94328.38;;;2.04;86.71
28911;BME280;16028;42.642;23.310;2023-03-18T01:03:38;94318.56;;;1.96;87.07
28911;BME280;16028;42.642;23.310;2023-03-18T01:06:06;94320.47;;;1.93;87.53
28911;BME280;16028;42.642;23.310;2023-03-18T01:08:34;94318.75;;;1.93;87.29
28911;BME280;16028;42.642;23.310;2023-03-18T01:11:01;94324.88;;;1.91;87.46
28911;BME280;16028;42.642;23.310;2023-03-18T01:13:28;94321.31;;;1.93;87.65
28911;BME280;16028;42.642;23.310;2023-03-18T01:15:56;94311.31;;;1.89;87.51
28911;BME280;16028;42.642;23.310;2023-03-18T01:18:22;94307.34;;;1.83;86.88
28911;BME280;16028;42.642;23.310;2023-03-18T01:20:50;94308.44;;;1.79;87.71
28911;BME280;16028;42.642;23.310;2023-03-18T01:23:17;94309.19;;;1.81;87.80
28911;BME280;16028;42.642;23.310;2023-03-18T01:25:44;94304.78;;;1.83;87.81
28911;BME280;16028;42.642;23.310;2023-03-18T01:28:10;94309.19;;;1.81;87.46
28911;BME280;16028;42.642;23.310;2023-03-18T01:30:37;94297.28;;;1.80;87.78
28911;BME280;16028;42.642;23.310;2023-03-18T01:33:06;94309.56;;;1.75;87.77
28911;BME280;16028;42.642;23.310;2023-03-18T01:35:33;94308.06;;;1.71;87.85
28911;BME280;16028;42.642;23.310;2023-03-18T01:38:00;94304.94;;;1.66;88.15
28911;BME280;16028;42.642;23.310;2023-03-18T01:40:27;94299.97;;;1.63;88.14
28911;BME280;16028;42.642;23.310;2023-03-18T01:42:54;94299.34;;;1.59;88.72
28911;BME280;16028;42.642;23.310;2023-03-18T01:45:22;94301.16;;;1.57;89.28
28911;BME280;16028;42.642;23.310;2023-03-18T01:47:49;94298.34;;;1.62;88.86
28911;BME280;16028;42.642;23.310;2023-03-18T01:50:20;94295.78;;;1.62;88.56
28911;BME280;16028;42.642;23.310;2023-03-18T01:52:47;94300.09;;;1.62;88.68
28911;BME280;16028;42.642;23.310;2023-03-18T01:55:17;94304.19;;;1.64;89.27
28911;BME280;16028;42.642;23.310;2023-03-18T01:57:44;94302.47;;;1.65;88.60
28911;BME280;16028;42.642;23.310;2023-03-18T02:00:12;94296.34;;;1.67;89.04
28911;BME280;16028;42.642;23.310;2023-03-18T02:02:41;94296.50;;;1.64;88.80
28911;BME280;16028;42.642;23.310;2023-03-18T02:05:09;94294.97;;;1.62;88.10
28911;BME280;16028;42.642;23.310;2023-03-18T02:07:40;94288.81;;;1.64;88.34
28911;BME280;16028;42.642;23.310;2023-03-18T02:10:08;94288.16;;;1.60;88.40
28911;BME280;16028;42.642;23.310;2023-03-18T02:12:37;94295.03;;;1.60;88.60
28911;BME280;16028;42.642;23.310;2023-03-18T02:15:06;94284.59;;;1.63;88.65
28911;BME280;16028;42.642;23.310;2023-03-18T02:17:33;94283.16;;;1.59;87.94
28911;BME280;16028;42.642;23.310;2023-03-18T02:20:02;94288.53;;;1.54;88.41
28911;BME280;16028;42.642;23.310;2023-03-18T02:22:35;94283.69;;;1.50;88.84
28911;BME280;16028;42.642;23.310;2023-03-18T02:25:09;94282.00;;;1.49;88.62
28911;BME280;16028;42.642;23.310;2023-03-18T02:27:40;94292.25;;;1.49;88.43
28911;BME280;16028;42.642;23.310;2023-03-18T02:30:10;94288.31;;;1.43;88.60
28911;BME280;16028;42.642;23.310;2023-03-18T02:32:38;94289.06;;;1.45;88.45
28911;BME280;16028;42.642;23.310;2023-03-18T02:35:06;94288.31;;;1.43;88.58
28911;BME280;16028;42.642;23.310;2023-03-18T02:37:35;94280.63;;;1.43;89.02
28911;BME280;16028;42.642;23.310;2023-03-18T02:40:11;94286.47;;;1.45;89.02
28911;BME280;16028;42.642;23.310;2023-03-18T02:42:40;94286.47;;;1.45;88.88
28911;BME280;16028;42.642;23.310;2023-03-18T02:45:08;94286.38;;;1.47;89.28
28911;BME280;16028;42.642;23.310;2023-03-18T02:47:39;94284.66;;;1.47;88.84
28911;BME280;16028;42.642;23.310;2023-03-18T02:50:06;94277.91;;;1.46;88.48
28911;BME280;16028;42.642;23.310;2023-03-18T02:52:33;94280.28;;;1.49;88.72
28911;BME280;16028;42.642;23.310;2023-03-18T02:55:00;94287.88;;;1.51;88.71
28911;BME280;16028;42.642;23.310;2023-03-18T02:57:26;94277.72;;;1.49;88.37
28911;BME280;16028;42.642;23.310;2023-03-18T02:59:54;94277.91;;;1.46;88.15
28911;BME280;16028;42.642;23.310;2023-03-18T03:02:21;94283.19;;;1.43;88.77
28911;BME280;16028;42.642;23.310;2023-03-18T03:04:48;94279.03;;;1.41;88.63
28911;BME280;16028;42.642;23.310;2023-03-18T03:07:15;94289.47;;;1.38;88.61
28911;BME280;16028;42.642;23.310;2023-03-18T03:09:42;94286.34;;;1.33;88.27
28911;BME280;16028;42.642;23.310;2023-03-18T03:12:09;94283.38;;;1.25;88.16
28911;BME280;16028;42.642;23.310;2023-03-18T03:14:36;94285.56;;;1.17;88.83
28911;BME280;16028;42.642;23.310;2023-03-18T03:17:04;94283.00;;;1.17;90.05
28911;BME280;16028;42.642;23.310;2023-03-18T03:19:31;94282.75;;;1.21;89.94
28911;BME280;16028;42.642;23.310;2023-03-18T03:21:57;94289.34;;;1.25;90.07
28911;BME280;16028;42.642;23.310;2023-03-18T03:24:24;94289.34;;;1.25;90.08
28911;BME280;16028;42.642;23.310;2023-03-18T03:26:51;94294.47;;;1.25;89.93
28911;BME280;16028;42.642;23.310;2023-03-18T03:29:18;94301.31;;;1.25;89.91
28911;BME280;16028;42.642;23.310;2023-03-18T03:31:45;94302.31;;;1.22;89.46
28911;BME280;16028;42.642;23.310;2023-03-18T03:34:13;94304.16;;;1.20;89.92
28911;BME280;16028;42.642;23.310;2023-03-18T03:36:40;94300.75;;;1.20;89.78
28911;BME280;16028;42.642;23.310;2023-03-18T03:39:07;94300.59;;;1.23;89.59
28911;BME280;16028;42.642;23.310;2023-03-18T03:41:33;94300.59;;;1.23;89.78
28911;BME280;16028;42.642;23.310;2023-03-18T03:44:00;94298.38;;;1.17;89.62
28911;BME280;16028;42.642;23.310;2023-03-18T03:46:26;94305.38;;;1.13;89.63
28911;BME280;16028;42.642;23.310;2023-03-18T03:48:53;94305.56;;;1.10;90.28
28911;BME280;16028;42.642;23.310;2023-03-18T03:51:21;94306.56;;;1.08;89.69
28911;BME280;16028;42.642;23.310;2023-03-18T03:53:48;94304.16;;;1.04;90.36
28911;BME280;16028;42.642;23.310;2023-03-18T03:56:14;94302.28;;;1.08;90.55
28911;BME280;16028;42.642;23.310;2023-03-18T03:58:42;94297.16;;;1.08;91.05
28911;BME280;16028;42.642;23.310;2023-03-18T04:01:08;94298.72;;;1.11;91.25
28911;BME280;16028;42.642;23.310;2023-03-18T04:03:35;94294.31;;;1.13;90.77
28911;BME280;16028;42.642;23.310;2023-03-18T04:06:02;94299.38;;;1.14;91.17
28911;BME280;16028;42.642;23.310;2023-03-18T04:08:30;94297.63;;;1.15;90.99
28911;BME280;16028;42.642;23.310;2023-03-18T04:10:57;94307.13;;;1.13;90.92
28911;BME280;16028;42.642;23.310;2023-03-18T04:13:23;94309.13;;;1.08;91.03
28911;BME280;16028;42.642;23.310;2023-03-18T04:15:50;94321.25;;;1.04;90.64
28911;BME280;16028;42.642;23.310;2023-03-18T04:18:17;94325.56;;;1.03;90.74
28911;BME280;16028;42.642;23.310;2023-03-18T04:20:43;94323.91;;;1.02;90.88
28911;BME280;16028;42.642;23.310;2023-03-18T04:23:10;94331.50;;;1.04;90.70
28911;BME280;16028;42.642;23.310;2023-03-18T04:25:38;94334.41;;;0.98;90.57
28911;BME280;16028;42.642;23.310;2023-03-18T04:28:04;94333.81;;;0.93;91.05
28911;BME280;16028;42.642;23.310;2023-03-18T04:30:31;94336.63;;;0.88;91.04
28911;BME280;16028;42.642;23.310;2023-03-18T04:32:57;94336.47;;;0.91;91.14
28911;BME280;16028;42.642;23.310;2023-03-18T04:35:25;94339.03;;;0.91;91.07
28911;BME280;16028;42.642;23.310;2023-03-18T04:37:52;94344.88;;;0.93;91.52
28911;BME280;16028;42.642;23.310;2023-03-18T04:40:19;94343.72;;;0.99;91.06
28911;BME280;16028;42.642;23.310;2023-03-18T04:42:47;94350.34;;;1.03;90.52
28911;BME280;16028;42.642;23.310;2023-03-18T04:45:14;94346.78;;;1.05;91.22
28911;BME280;16028;42.642;23.310;2023-03-18T04:47:41;94343.66;;;1.00;90.93
28911;BME280;16028;42.642;23.310;2023-03-18T04:50:09;94350.00;;;0.93;91.24
28911;BME280;16028;42.642;23.310;2023-03-18T04:52:37;94349.16;;;0.93;91.29
28911;BME280;16028;42.642;23.310;2023-03-18T04:55:04;94352.31;;;0.98;91.63
28911;BME280;16028;42.642;23.310;2023-03-18T04:57:31;94354.63;;;1.02;91.72
28911;BME280;16028;42.642;23.310;2023-03-18T05:00:01;94351.00;;;1.06;91.38
28911;BME280;16028;42.642;23.310;2023-03-18T05:02:28;94352.50;;;1.11;92.00
28911;BME280;16028;42.642;23.310;2023-03-18T05:04:55;94350.31;;;1.19;91.82
28911;BME280;16028;42.642;23.310;2023-03-18T05:07:22;94353.88;;;1.16;92.07
28911;BME280;16028;42.642;23.310;2023-03-18T05:09:48;94354.47;;;1.21;92.25
28911;BME280;16028;42.642;23.310;2023-03-18T05:12:15;94352.47;;;1.26;92.74
28911;BME280;16028;42.642;23.310;2023-03-18T05:14:44;94351.47;;;1.29;92.76
28911;BME280;16028;42.642;23.310;2023-03-18T05:17:12;94351.47;;;1.29;93.30
28911;BME280;16028;42.642;23.310;2023-03-18T05:19:41;94353.19;;;1.28;93.05
28911;BME280;16028;42.642;23.310;2023-03-18T05:22:07;94353.13;;;1.30;93.09
28911;BME280;16028;42.642;23.310;2023-03-18T05:24:34;94351.31;;;1.32;93.61
28911;BME280;16028;42.642;23.310;2023-03-18T05:27:00;94338.91;;;1.40;93.66
28911;BME280;16028;42.642;23.310;2023-03-18T05:29:27;94340.38;;;1.44;93.43
28911;BME280;16028;42.642;23.310;2023-03-18T05:31:54;94338.94;;;1.54;93.44
28911;BME280;16028;42.642;23.310;2023-03-18T05:34:22;94338.59;;;1.60;94.21
28911;BME280;16028;42.642;23.310;2023-03-18T05:36:49;94336.53;;;1.67;94.37
28911;BME280;16028;42.642;23.310;2023-03-18T05:39:16;94338.44;;;1.63;93.96
28911;BME280;16028;42.642;23.310;2023-03-18T05:41:42;94335.69;;;1.66;94.83
28911;BME280;16028;42.642;23.310;2023-03-18T05:44:09;94337.00;;;1.73;95.07
28911;BME280;16028;42.642;23.310;2023-03-18T05:46:35;94337.94;;;1.86;94.80
28911;BME280;16028;42.642;23.310;2023-03-18T05:49:02;94341.25;;;1.88;95.29
28911;BME280;16028;42.642;23.310;2023-03-18T05:51:30;94339.16;;;1.95;94.98
28911;BME280;16028;42.642;23.310;2023-03-18T05:53:57;94344.97;;;2.12;93.92
28911;BME280;16028;42.642;23.310;2023-03-18T05:56:23;94355.78;;;2.03;93.23
28911;BME280;16028;42.642;23.310;2023-03-18T05:58:50;94359.59;;;1.96;93.13
28911;BME280;16028;42.642;23.310;2023-03-18T06:01:17;94358.94;;;1.93;93.41
28911;BME280;16028;42.642;23.310;2023-03-18T06:03:44;94360.50;;;1.95;94.02
28911;BME280;16028;42.642;23.310;2023-03-18T06:06:11;94362.34;;;2.07;93.62
28911;BME280;16028;42.642;23.310;2023-03-18T06:08:39;94370.41;;;2.01;93.60
28911;BME280;16028;42.642;23.310;2023-03-18T06:11:05;94375.88;;;1.95;93.86
28911;BME280;16028;42.642;23.310;2023-03-18T06:13:32;94383.41;;;1.98;94.43
28911;BME280;16028;42.642;23.310;2023-03-18T06:15:58;94372.25;;;1.99;94.85
28911;BME280;16028;42.642;23.310;2023-03-18T06:18:25;94376.28;;;2.03;94.40
28911;BME280;16028;42.642;23.310;2023-03-18T06:20:52;94376.75;;;2.10;94.01
28911;BME280;16028;42.642;23.310;2023-03-18T06:23:18;94382.75;;;2.25;92.50
28911;BME280;16028;42.642;23.310;2023-03-18T06:25:47;94380.81;;;2.28;91.30
28911;BME280;16028;42.642;23.310;2023-03-18T06:28:14;94384.94;;;2.31;88.95
28911;BME280;16028;42.642;23.310;2023-03-18T06:30:41;94374.78;;;2.29;88.09
28911;BME280;16028;42.642;23.310;2023-03-18T06:33:08;94369.72;;;2.28;88.84
28911;BME280;16028;42.642;23.310;2023-03-18T06:35:34;94368.72;;;2.30;89.05
28911;BME280;16028;42.642;23.310;2023-03-18T06:38:01;94359.56;;;2.26;88.92
28911;BME280;16028;42.642;23.310;2023-03-18T06:40:28;94351.97;;;2.39;88.62
28911;BME280;16028;42.642;23.310;2023-03-18T06:42:55;94342.06;;;2.47;86.79
28911;BME280;16028;42.642;23.310;2023-03-18T06:45:22;94342.06;;;2.47;86.63
28911;BME280;16028;42.642;23.310;2023-03-18T06:47:49;94338.97;;;2.42;87.86
28911;BME280;16028;42.642;23.310;2023-03-18T06:50:16;94336.03;;;2.48;88.73
28911;BME280;16028;42.642;23.310;2023-03-18T06:52:42;94334.91;;;2.66;87.53
28911;BME280;16028;42.642;23.310;2023-03-18T06:55:09;94335.34;;;2.73;85.68
28911;BME280;16028;42.642;23.310;2023-03-18T06:57:35;94338.47;;;2.78;85.30
28911;BME280;16028;42.642;23.310;2023-03-18T07:00:07;94334.41;;;2.88;84.76
28911;BME280;16028;42.642;23.310;2023-03-18T07:02:34;94335.44;;;2.99;83.46
28911;BME280;16028;42.642;23.310;2023-03-18T07:05:01;94333.13;;;2.95;84.09
28911;BME280;16028;42.642;23.310;2023-03-18T07:07:28;94340.19;;;2.91;84.51
28911;BME280;16028;42.642;23.310;2023-03-18T07:09:55;94339.94;;;2.96;85.61
28911;BME280;16028;42.642;23.310;2023-03-18T07:12:21;94341.84;;;2.92;84.97
28911;BME280;16028;42.642;23.310;2023-03-18T07:14:48;94340.84;;;2.95;84.02
28911;BME280;16028;42.642;23.310;2023-03-18T07:17:16;94338.81;;;3.00;86.49
28911;BME280;16028;42.642;23.310;2023-03-18T07:19:42;94328.81;;;2.95;85.98
28911;BME280;16028;42.642;23.310;2023-03-18T07:22:09;94336.53;;;2.95;86.84
28911;BME280;16028;42.642;23.310;2023-03-18T07:24:35;94340.06;;;3.07;87.32
28911;BME280;16028;42.642;23.310;2023-03-18T07:27:02;94332.53;;;3.18;87.21
28911;BME280;16028;42.642;23.310;2023-03-18T07:29:28;94337.34;;;3.37;86.04
28911;BME280;16028;42.642;23.310;2023-03-18T07:31:55;94342.69;;;3.60;81.98
28911;BME280;16028;42.642;23.310;2023-03-18T07:34:23;94343.22;;;3.65;82.08
28911;BME280;16028;42.642;23.310;2023-03-18T07:36:50;94351.75;;;3.66;84.34
28911;BME280;16028;42.642;23.310;2023-03-18T07:39:17;94337.94;;;3.67;83.98
28911;BME280;16028;42.642;23.310;2023-03-18T07:41:43;94346.50;;;3.67;83.79
28911;BME280;16028;42.642;23.310;2023-03-18T07:44:09;94343.03;;;3.81;83.47
28911;BME280;16028;42.642;23.310;2023-03-18T07:46:37;94342.56;;;3.89;81.67
28911;BME280;16028;42.642;23.310;2023-03-18T07:49:03;94346.13;;;3.86;82.50
28911;BME280;16028;42.642;23.310;2023-03-18T07:51:31;94349.88;;;3.95;82.50
28911;BME280;16028;42.642;23.310;2023-03-18T07:53:58;94349.75;;;3.96;83.12
28911;BME280;16028;42.642;23.310;2023-03-18T07:56:24;94353.28;;;3.95;82.67
28911;BME280;16028;42.642;23.310;2023-03-18T07:58:51;94345.31;;;3.86;84.59
28911;BME280;16028;42.642;23.310;2023-03-18T08:01:17;94346.78;;;4.02;82.76
28911;BME280;16028;42.642;23.310;2023-03-18T08:03:44;94354.19;;;3.94;83.28
28911;BME280;16028;42.642;23.310;2023-03-18T08:06:11;94350.50;;;3.98;84.21
28911;BME280;16028;42.642;23.310;2023-03-18T08:08:40;94343.09;;;4.19;82.22
28911;BME280;16028;42.642;23.310;2023-03-18T08:11:07;94347.41;;;4.18;82.24
28911;BME280;16028;42.642;23.310;2023-03-18T08:13:34;94339.28;;;4.24;82.15
28911;BME280;16028;42.642;23.310;2023-03-18T08:16:00;94336.72;;;4.24;82.16
28911;BME280;16028;42.642;23.310;2023-03-18T08:18:27;94330.03;;;4.22;81.13
28911;BME280;16028;42.642;23.310;2023-03-18T08:20:54;94328.81;;;4.28;80.41
28911;BME280;16028;42.642;23.310;2023-03-18T08:23:20;94332.41;;;4.25;81.14
28911;BME280;16028;42.642;23.310;2023-03-18T08:25:49;94333.84;;;4.42;81.90
28911;BME280;16028;42.642;23.310;2023-03-18T08:28:16;94341.91;;;4.50;80.78
28911;BME280;16028;42.642;23.310;2023-03-18T08:30:43;94343.31;;;4.54;80.17
28911;BME280;16028;42.642;23.310;2023-03-18T08:33:11;94341.88;;;4.62;81.85
28911;BME280;16028;42.642;23.310;2023-03-18T08:35:38;94346.72;;;4.67;79.33
28911;BME280;16028;42.642;23.310;2023-03-18T08:38:05;94343.28;;;4.79;79.42
28911;BME280;16028;42.642;23.310;2023-03-18T08:40:32;94345.97;;;4.90;77.51
28911;BME280;16028;42.642;23.310;2023-03-18T08:43:00;94341.75;;;4.89;78.92
28911;BME280;16028;42.642;23.310;2023-03-18T08:45:27;94337.19;;;5.05;77.82
28911;BME280;16028;42.642;23.310;2023-03-18T08:47:53;94344.47;;;5.11;77.65
28911;BME280;16028;42.642;23.310;2023-03-18T08:50:20;94343.78;;;5.09;78.11
28911;BME280;16028;42.642;23.310;2023-03-18T08:52:46;94348.94;;;5.09;79.30
28911;BME280;16028;42.642;23.310;2023-03-18T08:55:13;94341.16;;;5.22;79.51
28911;BME280;16028;42.642;23.310;2023-03-18T08:57:40;94353.69;;;5.39;77.13
28911;BME280;16028;42.642;23.310;2023-03-18T09:00:09;94347.09;;;5.59;74.08
28911;BME280;16028;42.642;23.310;2023-03-18T09:02:37;94352.56;;;5.67;72.05
28911;BME280;16028;42.642;23.310;2023-03-18T09:05:04;94355.56;;;5.61;72.04
28911;BME280;16028;42.642;23.310;2023-03-18T09:07:31;94347.72;;;5.62;73.07
28911;BME280;16028;42.642;23.310;2023-03-18T09:09:57;94352.56;;;5.67;73.83
28911;BME280;16028;42.642;23.310;2023-03-18T09:12:24;94359.09;;;5.83;70.53
28911;BME280;16028;42.642;23.310;2023-03-18T09:14:50;94354.66;;;5.85;72.33
28911;BME280;16028;42.642;23.310;2023-03-18T09:17:19;94354.34;;;5.90;71.81
28911;BME280;16028;42.642;23.310;2023-03-18T09:19:47;94356.09;;;5.90;72.04
28911;BME280;16028;42.642;23.310;2023-03-18T09:22:13;94350.19;;;5.88;73.42
28911;BME280;16028;42.642;23.310;2023-03-18T09:24:40;94360.69;;;5.97;74.55
28911;BME280;16028;42.642;23.310;2023-03-18T09:27:07;94363.16;;;5.99;72.52
28911;BME280;16028;42.642;23.310;2023-03-18T09:29:33;94363.09;;;6.11;70.13
28911;BME280;16028;42.642;23.310;2023-03-18T09:32:00;94363.94;;;6.23;67.56
28911;BME280;16028;42.642;23.310;2023-03-18T09:34:28;94359.97;;;6.30;66.01
28911;BME280;16028;42.642;23.310;2023-03-18T09:36:55;94350.84;;;6.48;55.76
28911;BME280;16028;42.642;23.310;2023-03-18T09:39:22;94355.56;;;6.54;56.97
28911;BME280;16028;42.642;23.310;2023-03-18T09:41:51;94358.00;;;6.45;60.86
28911;BME280;16028;42.642;23.310;2023-03-18T09:44:20;94342.53;;;6.56;58.61
28911;BME280;16028;42.642;23.310;2023-03-18T09:46:53;94350.78;;;6.72;59.29
28911;BME280;16028;42.642;23.310;2023-03-18T09:49:30;94347.97;;;6.75;58.61
28911;BME280;16028;42.642;23.310;2023-03-18T09:52:01;94356.19;;;6.91;56.93
28911;BME280;16028;42.642;23.310;2023-03-18T09:54:34;94343.63;;;6.98;57.31
28911;BME280;16028;42.642;23.310;2023-03-18T09:57:03;94348.66;;;6.88;58.69
28911;BME280;16028;42.642;23.310;2023-03-18T09:59:34;94349.84;;;7.06;58.48
28911;BME280;16028;42.642;23.310;2023-03-18T10:02:03;94348.44;;;7.13;58.36
28911;BME280;16028;42.642;23.310;2023-03-18T10:04:35;94351.94;;;7.12;58.32
28911;BME280;16028;42.642;23.310;2023-03-18T10:07:06;94352.53;;;7.27;58.63
28911;BME280;16028;42.642;23.310;2023-03-18T10:09:38;94355.00;;;7.28;57.98
28911;BME280;16028;42.642;23.310;2023-03-18T10:12:06;94354.31;;;7.26;56.18
28911;BME280;16028;42.642;23.310;2023-03-18T10:14:38;94352.41;;;7.28;55.80
28911;BME280;16028;42.642;23.310;2023-03-18T10:17:10;94354.53;;;7.12;51.58
28911;BME280;16028;42.642;23.310;2023-03-18T10:19:42;94354.78;;;7.09;54.21
28911;BME280;16028;42.642;23.310;2023-03-18T10:22:14;94349.97;;;7.05;54.26
28911;BME280;16028;42.642;23.310;2023-03-18T10:24:46;94351.13;;;7.01;55.68
28911;BME280;16028;42.642;23.310;2023-03-18T10:27:17;94353.47;;;7.15;45.48
28911;BME280;16028;42.642;23.310;2023-03-18T10:29:45;94354.19;;;7.17;49.63
28911;BME280;16028;42.642;23.310;2023-03-18T10:32:16;94349.13;;;7.26;49.08
28911;BME280;16028;42.642;23.310;2023-03-18T10:34:52;94348.66;;;7.32;52.49
28911;BME280;16028;42.642;23.310;2023-03-18T10:37:22;94350.16;;;7.46;47.01
28911;BME280;16028;42.642;23.310;2023-03-18T10:39:54;94345.47;;;7.40;47.71
28911;BME280;16028;42.642;23.310;2023-03-18T10:42:22;94339.34;;;7.41;46.47
28911;BME280;16028;42.642;23.310;2023-03-18T10:44:50;94343.44;;;7.43;47.53
28911;BME280;16028;42.642;23.310;2023-03-18T10:47:20;94346.84;;;7.55;47.47
28911;BME280;16028;42.642;23.310;2023-03-18T10:49:48;94344.84;;;7.59;48.86
28911;BME280;16028;42.642;23.310;2023-03-18T10:52:25;94331.66;;;7.62;51.76
28911;BME280;16028;42.642;23.310;2023-03-18T10:54:55;94334.31;;;8.03;48.60
28911;BME280;16028;42.642;23.310;2023-03-18T10:57:22;94340.28;;;8.15;46.85
28911;BME280;16028;42.642;23.310;2023-03-18T10:59:49;94334.00;;;8.17;46.64
28911;BME280;16028;42.642;23.310;2023-03-18T11:02:17;94326.63;;;8.13;46.59
28911;BME280;16028;42.642;23.310;2023-03-18T11:04:46;94336.84;;;8.14;44.04
28911;BME280;16028;42.642;23.310;2023-03-18T11:07:15;94335.66;;;8.18;46.15
28911;BME280;16028;42.642;23.310;2023-03-18T11:09:45;94318.53;;;8.27;49.83
28911;BME280;16028;42.642;23.310;2023-03-18T11:12:13;94326.16;;;8.60;52.15
28911;BME280;16028;42.642;23.310;2023-03-18T11:14:45;94326.09;;;9.01;46.69
28911;BME280;16028;42.642;23.310;2023-03-18T11:17:18;94323.72;;;8.89;42.68
28911;BME280;16028;42.642;23.310;2023-03-18T11:19:46;94326.06;;;8.71;42.89
28911;BME280;16028;42.642;23.310;2023-03-18T11:22:16;94326.00;;;8.62;43.47
28911;BME280;16028;42.642;23.310;2023-03-18T11:24:45;94320.75;;;8.52;45.41
28911;BME280;16028;42.642;23.310;2023-03-18T11:27:23;94310.59;;;8.39;47.45
28911;BME280;16028;42.642;23.310;2023-03-18T11:30:09;94319.94;;;8.10;48.64
28911;BME280;16028;42.642;23.310;2023-03-18T11:32:48;94330.47;;;7.97;47.20
28911;BME280;16028;42.642;23.310;2023-03-18T11:35:17;94324.38;;;7.87;48.57
28911;BME280;16028;42.642;23.310;2023-03-18T11:37:45;94319.72;;;7.81;48.27
28911;BME280;16028;42.642;23.310;2023-03-18T11:40:18;94321.81;;;7.76;49.19
28911;BME280;16028;42.642;23.310;2023-03-18T11:42:45;94318.97;;;7.90;48.67
28911;BME280;16028;42.642;23.310;2023-03-18T11:45:26;94324.38;;;8.19;46.44
28911;BME280;16028;42.642;23.310;2023-03-18T11:47:56;94304.78;;;8.26;48.29
28911;BME280;16028;42.642;23.310;2023-03-18T11:50:23;94303.66;;;8.40;48.20
28911;BME280;16028;42.642;23.310;2023-03-18T11:52:52;94311.06;;;8.44;47.21
28911;BME280;16028;42.642;23.310;2023-03-18T11:55:26;94319.19;;;8.61;45.07
28911;BME280;16028;42.642;23.310;2023-03-18T12:00:41;94316.28;;;8.54;46.12
28911;BME280;16028;42.642;23.310;2023-03-18T12:06:02;94325.91;;;8.42;44.54
28911;BME280;16028;42.642;23.310;2023-03-18T12:08:33;94316.75;;;8.38;47.04
28911;BME280;16028;42.642;23.310;2023-03-18T12:11:07;94317.91;;;8.45;44.26
28911;BME280;16028;42.642;23.310;2023-03-18T12:13:43;94317.69;;;8.58;46.19
28911;BME280;16028;42.642;23.310;2023-03-18T12:16:16;94315.09;;;8.88;45.50
28911;BME280;16028;42.642;23.310;2023-03-18T12:18:53;94311.00;;;8.86;49.15
28911;BME280;16028;42.642;23.310;2023-03-18T12:24:19;94319.50;;;8.97;47.62
28911;BME280;16028;42.642;23.310;2023-03-18T12:26:53;94316.66;;;9.00;46.47
28911;BME280;16028;42.642;23.310;2023-03-18T12:32:17;94307.88;;;8.92;48.99
28911;BME280;16028;42.642;23.310;2023-03-18T12:34:49;94312.53;;;8.98;46.39
28911;BME280;16028;42.642;23.310;2023-03-18T12:37:27;94310.22;;;8.95;46.00
28911;BME280;16028;42.642;23.310;2023-03-18T12:40:02;94312.69;;;8.96;45.30
28911;BME280;16028;42.642;23.310;2023-03-18T12:42:41;94311.69;;;8.88;44.16
28911;BME280;16028;42.642;23.310;2023-03-18T12:45:11;94306.97;;;8.72;44.14
28911;BME280;16028;42.642;23.310;2023-03-18T12:47:41;94303.91;;;8.58;45.77
28911;BME280;16028;42.642;23.310;2023-03-18T12:50:13;94305.47;;;8.49;47.20
28911;BME280;16028;42.642;23.310;2023-03-18T12:52:42;94298.97;;;8.55;45.97
28911;BME280;16028;42.642;23.310;2023-03-18T12:55:10;94308.63;;;8.52;47.56
28911;BME280;16028;42.642;23.310;2023-03-18T12:57:41;94302.59;;;8.73;47.23
28911;BME280;16028;42.642;23.310;2023-03-18T13:00:14;94296.97;;;8.98;49.11
28911;BME280;16028;42.642;23.310;2023-03-18T13:02:45;94303.66;;;9.00;44.88
28911;BME280;16028;42.642;23.310;2023-03-18T13:05:22;94309.50;;;8.83;43.97
28911;BME280;16028;42.642;23.310;2023-03-18T13:08:04;94305.19;;;8.73;44.55
28911;BME280;16028;42.642;23.310;2023-03-18T13:10:36;94302.31;;;8.66;48.46
28911;BME280;16028;42.642;23.310;2023-03-18T13:13:04;94306.81;;;8.64;47.63
28911;BME280;16028;42.642;23.310;2023-03-18T13:15:39;94302.47;;;8.74;46.08
28911;BME280;16028;42.642;23.310;2023-03-18T13:18:11;94299.88;;;8.74;47.39